createdAt,value
2022-12-16T00:01:12.941Z,95.77
2022-12-16T00:03:40.871Z,95.66
2022-12-16T00:06:09.936Z,95.13
2022-12-16T00:08:38.023Z,95.03
2022-12-16T00:11:05.655Z,95.35
2022-12-16T00:13:33.502Z,94.87
2022-12-16T00:16:05.069Z,95.72
2022-12-16T00:18:32.232Z,95.37
2022-12-16T00:20:59.397Z,94.23
2022-12-16T00:23:27.036Z,94.29
2022-12-16T00:25:54.321Z,94.59
2022-12-16T00:28:27.338Z,94.58
2022-12-16T00:30:57.025Z,94.70
2022-12-16T00:33:25.768Z,94.53
2022-12-16T00:35:53.529Z,95.04
2022-12-16T00:38:22.111Z,94.08
2022-12-16T00:40:49.246Z,94.41
2022-12-16T00:43:16.363Z,94.35
2022-12-16T00:45:43.522Z,95.53
2022-12-16T00:48:10.719Z,94.96
2022-12-16T00:50:37.807Z,94.15
2022-12-16T00:53:05.443Z,94.84
2022-12-16T00:55:32.641Z,93.98
2022-12-16T00:57:59.804Z,93.81
2022-12-16T01:00:27.045Z,95.03
2022-12-16T01:02:54.306Z,95.08
2022-12-16T01:05:26.468Z,94.60
2022-12-16T01:07:54.452Z,95.16
2022-12-16T01:10:21.958Z,93.62
2022-12-16T01:12:49.588Z,93.40
2022-12-16T01:15:18.124Z,94.99
2022-12-16T01:17:45.256Z,93.49
2022-12-16T01:20:13.379Z,93.17
2022-12-16T01:22:40.681Z,94.35
2022-12-16T01:25:08.508Z,93.94
2022-12-16T01:27:35.693Z,94.15
2022-12-16T01:30:03.206Z,94.50
2022-12-16T01:32:30.392Z,94.26
2022-12-16T01:34:58.769Z,93.81
2022-12-16T01:37:26.227Z,93.83
2022-12-16T01:39:53.723Z,93.81
2022-12-16T01:42:21.791Z,93.99
2022-12-16T01:44:49.798Z,93.36
2022-12-16T01:47:20.860Z,93.42
2022-12-16T01:49:50.561Z,94.15
2022-12-16T01:52:19.108Z,93.26
2022-12-16T01:55:09.576Z,92.91
2022-12-16T01:57:38.068Z,93.39
2022-12-16T02:00:06.526Z,94.00
2022-12-16T02:02:33.898Z,94.30
2022-12-16T02:05:19.878Z,93.46
2022-12-16T02:07:56.274Z,94.00
2022-12-16T02:10:25.649Z,92.62
2022-12-16T02:13:05.311Z,92.71
2022-12-16T02:15:35.416Z,93.93
2022-12-16T02:18:06.031Z,92.95
2022-12-16T02:20:33.427Z,93.31
2022-12-16T02:23:09.681Z,93.11
2022-12-16T02:25:55.672Z,92.30
2022-12-16T02:28:32.241Z,92.94
2022-12-16T02:31:19.788Z,92.63
2022-12-16T02:33:58.994Z,92.30
2022-12-16T02:36:32.275Z,91.61
2022-12-16T02:39:00.328Z,92.82
2022-12-16T02:41:33.179Z,91.99
2022-12-16T02:44:04.841Z,91.23
2022-12-16T02:46:35.427Z,92.25
2022-12-16T02:49:06.496Z,91.30
2022-12-16T02:51:33.746Z,91.66
2022-12-16T02:54:00.892Z,91.96
2022-12-16T02:56:51.435Z,93.49
2022-12-16T02:59:27.343Z,93.93
2022-12-16T03:02:05.398Z,93.27
2022-12-16T03:04:40.590Z,93.83
2022-12-16T03:07:08.249Z,92.70
2022-12-16T03:09:35.554Z,94.64
2022-12-16T03:12:03.360Z,93.89
2022-12-16T03:14:31.831Z,94.62
2022-12-16T03:16:59.165Z,92.42
2022-12-16T03:19:26.463Z,92.52
2022-12-16T03:22:00.885Z,92.52
2022-12-16T03:24:28.315Z,93.42
2022-12-16T03:26:58.562Z,92.23
2022-12-16T03:29:32.839Z,92.16
2022-12-16T03:32:09.388Z,92.79
2022-12-16T03:34:39.565Z,92.52
2022-12-16T03:37:08.302Z,92.35
2022-12-16T03:39:36.430Z,93.46
2022-12-16T03:42:03.698Z,94.01
2022-12-16T03:44:30.910Z,93.93
2022-12-16T03:46:58.051Z,92.65
2022-12-16T03:49:25.155Z,92.45
2022-12-16T03:51:52.611Z,91.46
2022-12-16T03:54:19.729Z,92.97
2022-12-16T03:56:47.635Z,90.84
2022-12-16T03:59:14.793Z,92.28
2022-12-16T04:01:41.986Z,92.53
2022-12-16T04:04:09.176Z,92.80
2022-12-16T04:06:36.276Z,91.78
2022-12-16T04:09:03.406Z,91.38
2022-12-16T04:11:49.324Z,91.74
2022-12-16T04:14:34.890Z,91.37
2022-12-16T04:17:20.594Z,91.13
2022-12-16T04:20:06.291Z,91.83
2022-12-16T04:22:53.202Z,91.41
2022-12-16T04:25:27.731Z,91.51
2022-12-16T04:27:54.847Z,90.69
2022-12-16T04:30:22.240Z,91.00
2022-12-16T04:33:09.747Z,90.79
2022-12-16T04:35:55.636Z,91.05
2022-12-16T04:38:41.573Z,92.99
2022-12-16T04:41:27.658Z,92.02
2022-12-16T04:44:13.875Z,93.30
2022-12-16T04:47:00.200Z,92.00
2022-12-16T04:49:46.007Z,92.12
2022-12-16T04:52:31.965Z,94.59
2022-12-16T04:55:17.973Z,93.08
2022-12-16T04:58:07.652Z,93.18
2022-12-16T05:00:53.496Z,92.97
2022-12-16T05:03:41.785Z,92.99
2022-12-16T05:06:27.752Z,94.79
2022-12-16T05:09:13.576Z,92.74
2022-12-16T05:11:59.472Z,92.86
2022-12-16T05:14:45.369Z,92.49
2022-12-16T05:17:31.371Z,93.01
2022-12-16T05:20:17.284Z,92.50
2022-12-16T05:23:03.061Z,91.52
2022-12-16T05:25:49.115Z,92.20
2022-12-16T05:28:35.039Z,92.46
2022-12-16T05:31:20.738Z,92.73
2022-12-16T05:34:06.459Z,92.60
2022-12-16T05:36:52.391Z,92.29
2022-12-16T05:39:38.075Z,92.39
2022-12-16T05:42:23.680Z,91.53
2022-12-16T05:45:13.719Z,91.14
2022-12-16T05:47:59.610Z,92.34
2022-12-16T05:50:45.543Z,92.03
2022-12-16T05:53:31.974Z,92.04
2022-12-16T05:56:22.693Z,91.46
2022-12-16T05:59:08.883Z,91.73
2022-12-16T06:01:55.000Z,92.38
2022-12-16T06:04:40.987Z,93.23
2022-12-16T06:07:27.083Z,91.62
2022-12-16T06:10:12.987Z,92.05
2022-12-16T06:12:58.940Z,92.41
2022-12-16T06:15:44.970Z,91.11
2022-12-16T06:18:30.827Z,91.08
2022-12-16T06:21:16.805Z,92.74
2022-12-16T06:24:02.931Z,92.86
2022-12-16T06:26:49.007Z,91.16
2022-12-16T06:29:34.946Z,92.88
2022-12-16T06:32:20.780Z,93.36
2022-12-16T06:35:06.649Z,93.10
2022-12-16T06:40:55.778Z,92.94
2022-12-16T06:43:41.272Z,91.61
2022-12-16T06:46:26.955Z,92.12
2022-12-16T06:49:12.697Z,92.48
2022-12-16T06:51:58.424Z,91.79
2022-12-16T06:54:44.262Z,91.00
2022-12-16T06:57:29.961Z,91.92
2022-12-16T07:00:15.960Z,92.47
2022-12-16T07:03:01.626Z,92.18
2022-12-16T07:05:47.505Z,91.45
2022-12-16T07:08:33.447Z,92.13
2022-12-16T07:11:22.461Z,91.65
2022-12-16T07:14:08.465Z,93.23
2022-12-16T07:16:54.568Z,92.84
2022-12-16T07:19:40.455Z,92.00
2022-12-16T07:22:26.894Z,91.64
2022-12-16T07:25:12.773Z,92.60
2022-12-16T07:27:58.605Z,91.65
2022-12-16T07:30:44.338Z,91.33
2022-12-16T07:33:30.107Z,92.33
2022-12-16T07:36:16.528Z,91.89
2022-12-16T07:39:03.899Z,90.42
2022-12-16T07:41:49.388Z,90.96
2022-12-16T07:44:35.107Z,91.83
2022-12-16T07:47:20.810Z,91.33
2022-12-16T07:50:06.771Z,91.38
2022-12-16T07:52:52.243Z,90.37
2022-12-16T07:55:41.391Z,92.18
2022-12-16T07:58:27.881Z,91.80
2022-12-16T08:01:13.940Z,91.01
2022-12-16T08:03:59.907Z,90.78
2022-12-16T08:06:45.858Z,92.27
2022-12-16T08:09:31.622Z,93.16
2022-12-16T08:12:17.454Z,93.76
2022-12-16T08:15:10.838Z,92.72
2022-12-16T08:17:56.696Z,93.43
2022-12-16T08:20:42.473Z,93.57
2022-12-16T08:23:28.133Z,93.45
2022-12-16T08:26:13.729Z,93.79
2022-12-16T08:29:19.890Z,93.95
2022-12-16T08:32:05.210Z,95.37
2022-12-16T08:34:51.027Z,95.43
2022-12-16T08:37:36.733Z,94.62
2022-12-16T08:40:35.380Z,94.70
2022-12-16T08:43:21.967Z,95.63
2022-12-16T08:46:08.586Z,95.46
2022-12-16T08:48:54.910Z,95.52
2022-12-16T08:51:41.882Z,95.32
2022-12-16T08:54:27.730Z,95.17
2022-12-16T08:57:13.834Z,96.05
2022-12-16T08:59:59.395Z,96.28
2022-12-16T09:02:45.170Z,96.09
2022-12-16T09:05:37.398Z,96.85
2022-12-16T09:08:23.333Z,96.91
2022-12-16T09:11:09.102Z,97.43
2022-12-16T09:13:55.122Z,97.75
2022-12-16T09:16:40.697Z,98.34
2022-12-16T09:19:26.709Z,97.73
2022-12-16T09:22:12.215Z,96.10
2022-12-16T09:24:57.747Z,96.41
2022-12-16T09:27:43.274Z,95.83
2022-12-16T09:30:29.267Z,95.26
2022-12-16T09:33:15.197Z,94.92
2022-12-16T09:36:00.932Z,94.13
2022-12-16T09:38:46.653Z,94.42
2022-12-16T09:41:52.630Z,93.84
2022-12-16T09:44:44.367Z,93.37
2022-12-16T09:47:33.525Z,93.37
2022-12-16T09:50:19.449Z,93.32
2022-12-16T09:53:06.608Z,93.27
2022-12-16T09:55:57.170Z,92.87
2022-12-16T09:58:44.033Z,92.59
2022-12-16T10:01:30.269Z,92.52
2022-12-16T10:04:16.335Z,92.80
2022-12-16T10:07:05.854Z,92.67
2022-12-16T10:10:10.780Z,92.53
2022-12-16T10:13:15.359Z,92.70
2022-12-16T10:16:07.779Z,92.78
2022-12-16T10:19:04.849Z,93.20
2022-12-16T10:22:20.510Z,93.35
2022-12-16T10:25:12.910Z,92.92
2022-12-16T10:28:05.567Z,93.03
2022-12-16T10:30:51.975Z,92.83
2022-12-16T10:33:38.517Z,92.48
2022-12-16T10:36:25.060Z,92.66
2022-12-16T10:39:20.625Z,92.47
2022-12-16T10:42:08.255Z,91.98
2022-12-16T10:44:54.607Z,91.96
2022-12-16T10:47:41.681Z,92.13
2022-12-16T10:50:31.286Z,92.14
2022-12-16T10:53:37.581Z,91.74
2022-12-16T10:56:26.841Z,92.16
2022-12-16T10:59:13.494Z,91.73
2022-12-16T11:01:59.379Z,91.54
2022-12-16T11:04:49.358Z,91.59
2022-12-16T11:07:56.425Z,91.29
2022-12-16T11:10:43.168Z,91.75
2022-12-16T11:13:31.140Z,90.86
2022-12-16T11:16:25.035Z,90.51
2022-12-16T11:19:11.202Z,89.62
2022-12-16T11:21:57.058Z,90.31
2022-12-16T11:24:42.659Z,90.25
2022-12-16T11:27:35.451Z,90.69
2022-12-16T11:30:22.465Z,90.37
2022-12-16T11:33:12.155Z,90.46
2022-12-16T11:35:58.995Z,89.82
2022-12-16T11:38:52.991Z,90.00
2022-12-16T11:41:55.261Z,90.38
2022-12-16T11:44:44.766Z,90.58
2022-12-16T11:47:57.094Z,89.81
2022-12-16T11:50:44.376Z,90.09
2022-12-16T11:53:39.350Z,90.18
2022-12-16T11:56:26.825Z,89.42
2022-12-16T11:59:12.850Z,91.06
2022-12-16T12:02:03.874Z,90.61
2022-12-16T12:04:49.963Z,89.90
2022-12-16T12:07:44.868Z,89.89
2022-12-16T12:10:48.484Z,90.36
2022-12-16T12:13:34.625Z,90.11
2022-12-16T12:16:32.102Z,89.95
2022-12-16T12:19:18.052Z,89.67
2022-12-16T12:22:15.882Z,89.29
2022-12-16T12:25:21.647Z,89.51
2022-12-16T12:28:14.002Z,90.15
2022-12-16T12:31:21.468Z,90.49
2022-12-16T12:34:07.507Z,89.37
2022-12-16T12:36:55.696Z,88.70
2022-12-16T12:39:50.783Z,88.88
2022-12-16T12:42:36.646Z,89.55
2022-12-16T12:45:28.332Z,88.43
2022-12-16T12:48:17.329Z,89.18
2022-12-16T12:51:18.309Z,88.52
2022-12-16T12:54:13.828Z,88.43
2022-12-16T12:57:09.626Z,89.00
2022-12-16T13:00:06.388Z,89.05
2022-12-16T13:02:58.039Z,89.51
2022-12-16T13:05:44.078Z,89.10
2022-12-16T13:08:49.100Z,89.01
2022-12-16T13:11:35.644Z,89.77
2022-12-16T13:14:21.547Z,89.21
2022-12-16T13:17:13.493Z,89.24
2022-12-16T13:20:07.022Z,89.06
2022-12-16T13:22:53.202Z,90.01
2022-12-16T13:25:58.434Z,89.10
2022-12-16T13:28:48.861Z,89.11
2022-12-16T13:31:34.733Z,88.57
2022-12-16T13:34:22.166Z,89.41
2022-12-16T13:37:19.057Z,88.49
2022-12-16T13:40:35.154Z,88.42
2022-12-16T13:43:23.876Z,88.81
2022-12-16T13:46:15.935Z,89.22
2022-12-16T13:49:01.875Z,89.04
2022-12-16T13:51:56.923Z,88.42
2022-12-16T13:54:46.006Z,89.34
2022-12-16T13:57:34.678Z,88.96
2022-12-16T14:00:20.502Z,88.09
2022-12-16T14:03:06.395Z,88.39
2022-12-16T14:05:53.825Z,88.70
2022-12-16T14:08:41.698Z,89.23
2022-12-16T14:11:46.745Z,90.11
2022-12-16T14:14:43.016Z,89.72
2022-12-16T14:17:30.890Z,89.84
2022-12-16T14:20:22.003Z,89.76
2022-12-16T14:23:32.428Z,90.04
2022-12-16T14:26:20.991Z,89.50
2022-12-16T14:29:06.814Z,90.27
2022-12-16T14:31:56.404Z,89.65
2022-12-16T14:34:43.675Z,90.74
2022-12-16T14:37:38.846Z,90.05
2022-12-16T14:41:03.368Z,90.54
2022-12-16T14:43:49.116Z,89.78
2022-12-16T14:46:46.339Z,89.66
2022-12-16T14:49:40.425Z,90.59
2022-12-16T14:52:46.046Z,89.95
2022-12-16T14:55:35.940Z,90.38
2022-12-16T14:58:22.907Z,91.06
2022-12-16T15:01:15.339Z,92.07
2022-12-16T15:04:03.536Z,92.27
2022-12-16T15:06:53.963Z,92.65
2022-12-16T15:10:09.387Z,93.39
2022-12-16T15:12:56.059Z,93.09
2022-12-16T15:15:51.677Z,93.63
2022-12-16T15:18:41.748Z,93.12
2022-12-16T15:21:27.643Z,93.97
2022-12-16T15:24:13.396Z,94.20
2022-12-16T15:27:02.152Z,93.50
2022-12-16T15:29:51.122Z,93.65
2022-12-16T15:32:48.041Z,93.57
2022-12-16T15:35:44.012Z,93.56
2022-12-16T15:38:59.424Z,93.29
2022-12-16T15:41:46.472Z,92.75
2022-12-16T15:44:33.047Z,92.49
2022-12-16T15:47:18.802Z,91.98
2022-12-16T15:50:04.770Z,92.32
2022-12-16T15:53:03.278Z,91.89
2022-12-16T15:55:50.120Z,92.03
2022-12-16T15:58:45.938Z,91.47
2022-12-16T16:01:32.830Z,91.99
2022-12-16T16:04:18.801Z,91.81
2022-12-16T16:07:06.248Z,91.65
2022-12-16T16:09:53.164Z,91.53
2022-12-16T16:12:41.500Z,91.97
2022-12-16T16:15:28.633Z,92.92
2022-12-16T16:18:15.618Z,92.98
2022-12-16T16:21:01.283Z,93.26
2022-12-16T16:23:50.595Z,92.96
2022-12-16T16:26:37.365Z,93.44
2022-12-16T16:29:23.427Z,94.17
2022-12-16T16:32:09.286Z,93.21
2022-12-16T16:34:54.942Z,93.94
2022-12-16T16:37:40.433Z,93.57
2022-12-16T16:40:45.437Z,93.79
2022-12-16T16:43:31.741Z,93.34
2022-12-16T16:46:18.118Z,93.86
2022-12-16T16:49:08.471Z,93.76
2022-12-16T16:51:54.512Z,94.24
2022-12-16T16:54:40.138Z,94.13
2022-12-16T16:57:26.869Z,94.00
2022-12-16T17:00:13.011Z,93.59
2022-12-16T17:02:59.003Z,93.69
2022-12-16T17:05:44.979Z,94.07
2022-12-16T17:08:30.606Z,93.86
2022-12-16T17:11:16.155Z,93.51
2022-12-16T17:14:06.597Z,93.46
2022-12-16T17:16:52.683Z,92.71
2022-12-16T17:19:38.287Z,93.44
2022-12-16T17:22:23.945Z,92.88
2022-12-16T17:25:09.528Z,93.65
2022-12-16T17:27:55.270Z,94.01
2022-12-16T17:30:47.003Z,93.79
2022-12-16T17:33:36.694Z,93.68
2022-12-16T17:36:26.059Z,93.18
2022-12-16T17:39:14.520Z,93.12
2022-12-16T17:42:00.334Z,93.38
2022-12-16T17:44:46.065Z,93.52
2022-12-16T17:47:31.923Z,93.35
2022-12-16T17:50:20.780Z,94.15
2022-12-16T17:53:06.708Z,93.89
2022-12-16T17:55:52.559Z,94.57
2022-12-16T17:58:39.311Z,94.61
2022-12-16T18:01:24.982Z,93.94
2022-12-16T18:04:11.038Z,94.25
2022-12-16T18:06:56.994Z,94.23
2022-12-16T18:09:42.616Z,94.48
2022-12-16T18:12:28.552Z,94.84
2022-12-16T18:15:14.574Z,94.80
2022-12-16T18:18:01.963Z,95.35
2022-12-16T18:20:47.607Z,96.00
2022-12-16T18:23:33.956Z,95.42
2022-12-16T18:26:20.581Z,95.33
2022-12-16T18:29:06.299Z,94.68
2022-12-16T18:31:52.040Z,94.81
2022-12-16T18:34:37.754Z,93.94
2022-12-16T18:37:23.691Z,93.68
2022-12-16T18:40:09.607Z,93.56
2022-12-16T18:42:55.633Z,93.57
2022-12-16T18:45:41.811Z,94.18
2022-12-16T18:48:27.685Z,94.01
2022-12-16T18:51:14.164Z,93.44
2022-12-16T18:53:59.787Z,94.60
2022-12-16T18:56:45.651Z,93.59
2022-12-16T18:59:31.291Z,94.43
2022-12-16T19:02:17.185Z,93.29
2022-12-16T19:05:02.883Z,93.70
2022-12-16T19:07:48.438Z,94.51
2022-12-16T19:10:34.066Z,95.21
2022-12-16T19:13:19.754Z,95.06
2022-12-16T19:16:15.037Z,94.98
2022-12-16T19:19:01.088Z,95.03
2022-12-16T19:21:52.042Z,95.09
2022-12-16T19:24:42.249Z,95.11
2022-12-16T19:27:27.995Z,95.08
2022-12-16T19:30:13.925Z,94.72
2022-12-16T19:32:59.824Z,93.86
2022-12-16T19:35:45.873Z,93.67
2022-12-16T19:38:32.829Z,94.12
2022-12-16T19:41:18.394Z,93.38
2022-12-16T19:44:09.266Z,93.63
2022-12-16T19:46:56.235Z,93.67
2022-12-16T19:49:44.484Z,92.98
2022-12-16T19:52:30.908Z,93.17
2022-12-16T19:55:17.705Z,93.23
2022-12-16T19:58:06.966Z,93.88
2022-12-16T20:00:53.599Z,94.05
2022-12-16T20:03:39.693Z,93.73
2022-12-16T20:06:26.358Z,93.59
2022-12-16T20:09:12.419Z,93.96
2022-12-16T20:11:58.333Z,93.56
2022-12-16T20:14:44.168Z,93.66
2022-12-16T20:17:29.953Z,94.45
2022-12-16T20:20:15.942Z,94.51
2022-12-16T20:23:01.776Z,94.63
2022-12-16T20:25:51.789Z,94.08
2022-12-16T20:28:37.751Z,93.68
2022-12-16T20:31:23.504Z,94.40
2022-12-16T20:34:12.886Z,94.27
2022-12-16T20:36:58.768Z,93.32
2022-12-16T20:39:49.473Z,93.82
2022-12-16T20:42:38.948Z,93.36
2022-12-16T20:45:24.812Z,92.99
2022-12-16T20:48:11.746Z,93.26
2022-12-16T20:50:57.741Z,93.49
2022-12-16T20:53:43.296Z,92.59
2022-12-16T20:56:29.344Z,93.18
2022-12-16T20:59:18.296Z,92.82
2022-12-16T21:05:12.931Z,93.13
2022-12-16T21:07:58.542Z,92.66
2022-12-16T21:10:44.451Z,92.20
2022-12-16T21:13:34.410Z,92.80
2022-12-16T21:16:20.716Z,92.51
2022-12-16T21:19:06.456Z,92.65
2022-12-16T21:21:52.122Z,93.07
2022-12-16T21:24:38.070Z,92.32
2022-12-16T21:27:24.087Z,92.70
2022-12-16T21:30:09.696Z,92.98
2022-12-16T21:32:56.648Z,92.17
2022-12-16T21:35:42.667Z,93.55
2022-12-16T21:38:28.679Z,93.33
2022-12-16T21:41:14.994Z,92.23
2022-12-16T21:44:00.870Z,93.13
2022-12-16T21:46:46.569Z,92.40
2022-12-16T21:49:32.627Z,93.33
2022-12-16T21:52:18.258Z,93.41
2022-12-16T21:55:03.875Z,93.03
2022-12-16T21:57:49.312Z,92.80
2022-12-16T22:00:35.090Z,92.62
2022-12-16T22:03:20.688Z,93.43
2022-12-16T22:06:09.547Z,92.92
2022-12-16T22:08:56.231Z,93.20
2022-12-16T22:11:42.229Z,93.45
2022-12-16T22:14:27.900Z,93.31
2022-12-16T22:17:13.830Z,93.94
2022-12-16T22:19:59.862Z,94.18
2022-12-16T22:22:45.715Z,93.83
2022-12-16T22:25:31.435Z,93.76
2022-12-16T22:28:16.984Z,94.61
2022-12-16T22:31:02.733Z,94.69
2022-12-16T22:33:48.895Z,94.37
2022-12-16T22:36:35.085Z,94.74
2022-12-16T22:39:21.044Z,95.66
2022-12-16T22:42:06.736Z,95.76
2022-12-16T22:44:52.418Z,96.36
2022-12-16T22:47:42.171Z,96.34
2022-12-16T22:50:28.305Z,96.45
2022-12-16T22:53:16.203Z,96.69
2022-12-16T22:56:02.504Z,95.81
2022-12-16T22:58:48.478Z,96.34
2022-12-16T23:01:34.153Z,95.05
2022-12-16T23:04:20.242Z,95.08
2022-12-16T23:07:06.031Z,95.71
2022-12-16T23:09:53.304Z,96.13
2022-12-16T23:12:39.154Z,96.50
2022-12-16T23:15:25.020Z,97.64
2022-12-16T23:18:10.949Z,97.13
2022-12-16T23:20:56.897Z,97.38
2022-12-16T23:23:44.488Z,97.27
2022-12-16T23:26:30.207Z,97.38
2022-12-16T23:29:15.879Z,96.56
2022-12-16T23:32:01.471Z,96.35
2022-12-16T23:34:47.217Z,97.01
2022-12-16T23:37:32.998Z,96.49
2022-12-16T23:40:18.802Z,97.39
2022-12-16T23:43:05.454Z,96.82
2022-12-16T23:45:51.499Z,97.40
2022-12-16T23:48:37.472Z,97.61
2022-12-16T23:51:23.115Z,97.70
2022-12-16T23:54:08.666Z,96.68
2022-12-16T23:56:56.295Z,96.52
2022-12-16T23:59:42.393Z,96.96
